sensor_id;sensor_type;location;lat;lon;timestamp;pressure;altitude;pressure_sealevel;temperature;humidity
47716;BME280;33476;50.984;3.538;2023-05-12T00:00:23;101774.16;;;15.73;68.98
47716;BME280;33476;50.984;3.538;2023-05-12T00:02:49;101773.22;;;15.74;69.37
47716;BME280;33476;50.984;3.538;2023-05-12T00:05:14;101775.75;;;15.76;69.44
47716;BME280;33476;50.984;3.538;2023-05-12T00:07:40;101775.00;;;15.73;69.56
47716;BME280;33476;50.984;3.538;2023-05-12T00:10:05;101773.22;;;15.74;69.68
47716;BME280;33476;50.984;3.538;2023-05-12T00:12:31;101772.28;;;15.75;70.04
47716;BME280;33476;50.984;3.538;2023-05-12T00:14:56;101775.66;;;15.77;69.99
47716;BME280;33476;50.984;3.538;2023-05-12T00:17:21;101770.22;;;15.80;69.94
47716;BME280;33476;50.984;3.538;2023-05-12T00:19:47;101764.91;;;15.82;69.83
47716;BME280;33476;50.984;3.538;2023-05-12T00:22:13;101766.69;;;15.81;70.07
47716;BME280;33476;50.984;3.538;2023-05-12T00:24:39;101764.91;;;15.82;70.32
47716;BME280;33476;50.984;3.538;2023-05-12T00:27:05;101764.03;;;15.81;70.24
47716;BME280;33476;50.984;3.538;2023-05-12T00:29:32;101757.00;;;15.82;70.60
47716;BME280;33476;50.984;3.538;2023-05-12T00:31:58;101755.19;;;15.82;70.78
47716;BME280;33476;50.984;3.538;2023-05-12T00:34:23;101756.81;;;15.85;70.84
47716;BME280;33476;50.984;3.538;2023-05-12T00:36:49;101760.28;;;15.85;70.92
47716;BME280;33476;50.984;3.538;2023-05-12T00:39:14;101757.66;;;15.85;70.90
47716;BME280;33476;50.984;3.538;2023-05-12T00:41:40;101756.56;;;15.89;70.95
47716;BME280;33476;50.984;3.538;2023-05-12T00:44:05;101758.28;;;15.90;70.94
47716;BME280;33476;50.984;3.538;2023-05-12T00:46:30;101751.31;;;15.89;71.19
47716;BME280;33476;50.984;3.538;2023-05-12T00:48:57;101746.28;;;15.85;71.46
47716;BME280;33476;50.984;3.538;2023-05-12T00:51:24;101746.28;;;15.85;71.74
47716;BME280;33476;50.984;3.538;2023-05-12T00:53:51;101746.09;;;15.88;71.83
47716;BME280;33476;50.984;3.538;2023-05-12T00:56:18;101739.81;;;15.90;71.74
47716;BME280;33476;50.984;3.538;2023-05-12T00:58:44;101743.03;;;15.95;71.69
47716;BME280;33476;50.984;3.538;2023-05-12T01:01:09;101741.25;;;15.96;71.71
47716;BME280;33476;50.984;3.538;2023-05-12T01:03:35;101741.19;;;15.97;71.75
47716;BME280;33476;50.984;3.538;2023-05-12T01:06:17;101736.81;;;15.96;71.78
47716;BME280;33476;50.984;3.538;2023-05-12T01:08:46;101744.59;;;15.99;71.68
47716;BME280;33476;50.984;3.538;2023-05-12T01:11:12;101741.09;;;15.99;71.77
47716;BME280;33476;50.984;3.538;2023-05-12T01:13:37;101731.41;;;15.99;71.96
47716;BME280;33476;50.984;3.538;2023-05-12T01:16:05;101738.56;;;15.97;71.72
47716;BME280;33476;50.984;3.538;2023-05-12T01:18:35;101734.03;;;15.99;72.03
47716;BME280;33476;50.984;3.538;2023-05-12T01:21:02;101733.19;;;15.99;72.03
47716;BME280;33476;50.984;3.538;2023-05-12T01:23:39;101735.13;;;15.95;72.38
47716;BME280;33476;50.984;3.538;2023-05-12T01:26:09;101728.88;;;15.98;72.20
47716;BME280;33476;50.984;3.538;2023-05-12T01:28:36;101730.56;;;15.99;72.18
47716;BME280;33476;50.984;3.538;2023-05-12T01:31:03;101731.41;;;15.99;72.25
47716;BME280;33476;50.984;3.538;2023-05-12T01:33:31;101735.66;;;16.02;72.33
47716;BME280;33476;50.984;3.538;2023-05-12T01:35:57;101732.91;;;16.04;72.22
47716;BME280;33476;50.984;3.538;2023-05-12T01:38:22;101730.28;;;16.04;72.39
47716;BME280;33476;50.984;3.538;2023-05-12T01:40:48;101733.94;;;16.01;72.42
47716;BME280;33476;50.984;3.538;2023-05-12T01:43:13;101727.84;;;16.00;72.40
47716;BME280;33476;50.984;3.538;2023-05-12T01:45:38;101732.16;;;16.01;72.29
47716;BME280;33476;50.984;3.538;2023-05-12T01:48:04;101728.59;;;16.02;72.38
47716;BME280;33476;50.984;3.538;2023-05-12T01:50:29;101731.97;;;16.05;72.25
47716;BME280;33476;50.984;3.538;2023-05-12T01:52:55;101724.25;;;16.01;72.42
47716;BME280;33476;50.984;3.538;2023-05-12T01:55:20;101733.75;;;16.04;72.75
47716;BME280;33476;50.984;3.538;2023-05-12T01:57:46;101732.81;;;16.05;72.71
47716;BME280;33476;50.984;3.538;2023-05-12T02:00:11;101738.97;;;16.06;72.60
47716;BME280;33476;50.984;3.538;2023-05-12T02:02:37;101737.19;;;16.06;72.54
47716;BME280;33476;50.984;3.538;2023-05-12T02:05:03;101737.19;;;16.06;72.48
47716;BME280;33476;50.984;3.538;2023-05-12T02:07:28;101729.53;;;16.01;72.82
47716;BME280;33476;50.984;3.538;2023-05-12T02:09:53;101730.38;;;16.02;72.84
47716;BME280;33476;50.984;3.538;2023-05-12T02:12:19;101735.56;;;16.04;72.84
47716;BME280;33476;50.984;3.538;2023-05-12T02:14:44;101732.91;;;16.04;72.70
47716;BME280;33476;50.984;3.538;2023-05-12T02:17:10;101731.97;;;16.05;72.89
47716;BME280;33476;50.984;3.538;2023-05-12T02:19:35;101731.81;;;16.08;72.89
47716;BME280;33476;50.984;3.538;2023-05-12T02:22:00;101731.81;;;16.08;72.96
47716;BME280;33476;50.984;3.538;2023-05-12T02:24:26;101724.84;;;16.07;72.98
47716;BME280;33476;50.984;3.538;2023-05-12T02:26:51;101724.00;;;16.06;73.02
47716;BME280;33476;50.984;3.538;2023-05-12T02:29:17;101726.56;;;16.08;72.81
47716;BME280;33476;50.984;3.538;2023-05-12T02:31:42;101720.44;;;16.07;72.88
47716;BME280;33476;50.984;3.538;2023-05-12T02:34:08;101723.06;;;16.07;73.01
47716;BME280;33476;50.984;3.538;2023-05-12T02:36:33;101721.28;;;16.08;72.83
47716;BME280;33476;50.984;3.538;2023-05-12T02:38:59;101725.63;;;16.09;72.95
47716;BME280;33476;50.984;3.538;2023-05-12T02:41:24;101717.72;;;16.09;72.84
47716;BME280;33476;50.984;3.538;2023-05-12T02:43:49;101713.28;;;16.09;73.08
47716;BME280;33476;50.984;3.538;2023-05-12T02:46:15;101719.41;;;16.10;73.00
47716;BME280;33476;50.984;3.538;2023-05-12T02:48:40;101720.25;;;16.10;72.90
47716;BME280;33476;50.984;3.538;2023-05-12T02:51:05;101719.41;;;16.10;72.89
47716;BME280;33476;50.984;3.538;2023-05-12T02:53:31;101719.41;;;16.10;72.84
47716;BME280;33476;50.984;3.538;2023-05-12T02:55:56;101715.06;;;16.09;73.10
47716;BME280;33476;50.984;3.538;2023-05-12T02:58:22;101710.75;;;16.08;73.36
47716;BME280;33476;50.984;3.538;2023-05-12T03:00:47;101713.47;;;16.06;73.33
47716;BME280;33476;50.984;3.538;2023-05-12T03:03:12;101718.75;;;16.06;73.48
47716;BME280;33476;50.984;3.538;2023-05-12T03:05:38;101706.31;;;16.08;73.47
47716;BME280;33476;50.984;3.538;2023-05-12T03:08:03;101706.31;;;16.08;73.42
47716;BME280;33476;50.984;3.538;2023-05-12T03:10:29;101704.34;;;16.12;73.21
47716;BME280;33476;50.984;3.538;2023-05-12T03:12:54;101713.94;;;16.13;73.40
47716;BME280;33476;50.984;3.538;2023-05-12T03:15:20;101707.81;;;16.12;73.52
47716;BME280;33476;50.984;3.538;2023-05-12T03:17:45;101703.50;;;16.11;73.60
47716;BME280;33476;50.984;3.538;2023-05-12T03:20:11;101713.28;;;16.09;73.94
47716;BME280;33476;50.984;3.538;2023-05-12T03:22:36;101712.63;;;16.06;74.13
47716;BME280;33476;50.984;3.538;2023-05-12T03:25:02;101709.28;;;16.02;74.18
47716;BME280;33476;50.984;3.538;2023-05-12T03:27:30;101714.91;;;15.96;74.39
47716;BME280;33476;50.984;3.538;2023-05-12T03:29:56;101713.19;;;15.95;74.23
47716;BME280;33476;50.984;3.538;2023-05-12T03:32:24;101710.47;;;15.96;73.98
47716;BME280;33476;50.984;3.538;2023-05-12T03:34:50;101713.19;;;15.95;73.78
47716;BME280;33476;50.984;3.538;2023-05-12T03:37:15;101708.22;;;15.90;73.41
47716;BME280;33476;50.984;3.538;2023-05-12T03:39:41;101712.03;;;15.85;73.28
47716;BME280;33476;50.984;3.538;2023-05-12T03:42:06;101714.06;;;15.80;73.38
47716;BME280;33476;50.984;3.538;2023-05-12T03:44:32;101708.88;;;15.78;73.03
47716;BME280;33476;50.984;3.538;2023-05-12T03:46:57;101709.91;;;15.76;72.86
47716;BME280;33476;50.984;3.538;2023-05-12T03:49:22;101703.69;;;15.77;72.85
47716;BME280;33476;50.984;3.538;2023-05-12T03:51:50;101703.09;;;15.71;72.67
47716;BME280;33476;50.984;3.538;2023-05-12T03:54:16;101708.22;;;15.75;72.44
47716;BME280;33476;50.984;3.538;2023-05-12T03:56:41;101704.63;;;15.76;72.31
47716;BME280;33476;50.984;3.538;2023-05-12T03:59:06;101708.13;;;15.76;72.22
47716;BME280;33476;50.984;3.538;2023-05-12T04:01:32;101705.41;;;15.78;72.16
47716;BME280;33476;50.984;3.538;2023-05-12T04:03:57;101703.78;;;15.75;72.21
47716;BME280;33476;50.984;3.538;2023-05-12T04:06:22;101705.50;;;15.76;72.14
47716;BME280;33476;50.984;3.538;2023-05-12T04:08:48;101704.53;;;15.77;72.22
47716;BME280;33476;50.984;3.538;2023-05-12T04:11:13;101704.53;;;15.77;72.15
47716;BME280;33476;50.984;3.538;2023-05-12T04:13:39;101700.97;;;15.78;72.09
47716;BME280;33476;50.984;3.538;2023-05-12T04:16:04;101705.59;;;15.75;72.20
47716;BME280;33476;50.984;3.538;2023-05-12T04:18:30;101711.00;;;15.71;72.20
47716;BME280;33476;50.984;3.538;2023-05-12T04:20:55;101706.56;;;15.72;72.28
47716;BME280;33476;50.984;3.538;2023-05-12T04:23:21;101705.66;;;15.73;72.13
47716;BME280;33476;50.984;3.538;2023-05-12T04:25:46;101706.50;;;15.73;72.25
47716;BME280;33476;50.984;3.538;2023-05-12T04:28:12;101714.41;;;15.73;72.31
47716;BME280;33476;50.984;3.538;2023-05-12T04:30:38;101708.31;;;15.73;72.46
47716;BME280;33476;50.984;3.538;2023-05-12T04:33:04;101713.47;;;15.75;72.29
47716;BME280;33476;50.984;3.538;2023-05-12T04:35:29;101706.84;;;15.67;72.77
47716;BME280;33476;50.984;3.538;2023-05-12T04:37:55;101717.38;;;15.67;72.82
47716;BME280;33476;50.984;3.538;2023-05-12T04:40:20;101715.84;;;15.63;72.81
47716;BME280;33476;50.984;3.538;2023-05-12T04:42:46;101714.22;;;15.61;73.08
47716;BME280;33476;50.984;3.538;2023-05-12T04:45:11;101718.63;;;15.60;72.82
47716;BME280;33476;50.984;3.538;2023-05-12T04:47:37;101718.78;;;15.57;72.79
47716;BME280;33476;50.984;3.538;2023-05-12T04:50:02;101717.00;;;15.58;72.55
47716;BME280;33476;50.984;3.538;2023-05-12T04:52:31;101713.66;;;15.54;72.58
47716;BME280;33476;50.984;3.538;2023-05-12T04:54:56;101722.50;;;15.53;72.45
47716;BME280;33476;50.984;3.538;2023-05-12T04:57:21;101718.19;;;15.52;72.62
47716;BME280;33476;50.984;3.538;2023-05-12T04:59:47;101728.03;;;15.49;72.53
47716;BME280;33476;50.984;3.538;2023-05-12T05:02:12;101728.81;;;15.51;71.97
47716;BME280;33476;50.984;3.538;2023-05-12T05:04:38;101723.44;;;15.52;71.85
47716;BME280;33476;50.984;3.538;2023-05-12T05:07:03;101730.50;;;15.52;71.84
47716;BME280;33476;50.984;3.538;2023-05-12T05:09:29;101733.22;;;15.50;71.78
47716;BME280;33476;50.984;3.538;2023-05-12T05:11:54;101734.91;;;15.51;71.82
47716;BME280;33476;50.984;3.538;2023-05-12T05:14:20;101735.69;;;15.53;71.85
47716;BME280;33476;50.984;3.538;2023-05-12T05:16:45;101738.63;;;15.47;71.92
47716;BME280;33476;50.984;3.538;2023-05-12T05:19:11;101736.16;;;15.44;71.97
47716;BME280;33476;50.984;3.538;2023-05-12T05:21:37;101736.25;;;15.42;71.94
47716;BME280;33476;50.984;3.538;2023-05-12T05:24:03;101737.97;;;15.43;71.73
47716;BME280;33476;50.984;3.538;2023-05-12T05:26:28;101744.25;;;15.41;71.70
47716;BME280;33476;50.984;3.538;2023-05-12T05:28:54;101739.97;;;15.38;71.75
47716;BME280;33476;50.984;3.538;2023-05-12T05:31:19;101736.59;;;15.36;71.95
47716;BME280;33476;50.984;3.538;2023-05-12T05:33:45;101742.59;;;15.38;71.84
47716;BME280;33476;50.984;3.538;2023-05-12T05:36:11;101734.72;;;15.38;71.66
47716;BME280;33476;50.984;3.538;2023-05-12T05:38:37;101740.91;;;15.37;71.90
47716;BME280;33476;50.984;3.538;2023-05-12T05:41:02;101742.59;;;15.38;72.16
47716;BME280;33476;50.984;3.538;2023-05-12T05:43:28;101733.19;;;15.34;71.81
47716;BME280;33476;50.984;3.538;2023-05-12T05:45:54;101738.63;;;15.31;72.11
47716;BME280;33476;50.984;3.538;2023-05-12T05:48:21;101740.31;;;15.32;71.95
47716;BME280;33476;50.984;3.538;2023-05-12T05:50:47;101740.41;;;15.31;72.05
47716;BME280;33476;50.984;3.538;2023-05-12T05:53:12;101737.06;;;15.27;71.93
47716;BME280;33476;50.984;3.538;2023-05-12T05:55:38;101746.66;;;15.28;72.05
47716;BME280;33476;50.984;3.538;2023-05-12T05:58:03;101747.50;;;15.29;72.00
47716;BME280;33476;50.984;3.538;2023-05-12T06:00:29;101746.75;;;15.27;71.96
47716;BME280;33476;50.984;3.538;2023-05-12T06:02:55;101750.94;;;15.31;71.85
47716;BME280;33476;50.984;3.538;2023-05-12T06:05:20;101749.28;;;15.28;71.79
47716;BME280;33476;50.984;3.538;2023-05-12T06:07:45;101746.66;;;15.28;71.85
47716;BME280;33476;50.984;3.538;2023-05-12T06:10:11;101744.78;;;15.30;71.28
47716;BME280;33476;50.984;3.538;2023-05-12T06:12:36;101743.94;;;15.30;71.40
47716;BME280;33476;50.984;3.538;2023-05-12T06:15:02;101744.97;;;15.27;71.54
47716;BME280;33476;50.984;3.538;2023-05-12T06:17:27;101748.44;;;15.28;71.45
47716;BME280;33476;50.984;3.538;2023-05-12T06:19:52;101752.19;;;15.24;71.62
47716;BME280;33476;50.984;3.538;2023-05-12T06:22:18;101742.66;;;15.21;71.73
47716;BME280;33476;50.984;3.538;2023-05-12T06:24:43;101747.91;;;15.21;71.53
47716;BME280;33476;50.984;3.538;2023-05-12T06:27:09;101740.94;;;15.20;71.57
47716;BME280;33476;50.984;3.538;2023-05-12T06:29:34;101734.94;;;15.18;71.76
47716;BME280;33476;50.984;3.538;2023-05-12T06:31:59;101740.19;;;15.18;71.77
47716;BME280;33476;50.984;3.538;2023-05-12T06:34:25;101727.22;;;15.15;71.78
47716;BME280;33476;50.984;3.538;2023-05-12T06:36:51;101733.16;;;15.18;72.05
47716;BME280;33476;50.984;3.538;2023-05-12T06:39:16;101725.16;;;15.20;72.03
47716;BME280;33476;50.984;3.538;2023-05-12T06:41:42;101725.25;;;15.18;71.91
47716;BME280;33476;50.984;3.538;2023-05-12T06:44:07;101730.69;;;15.15;72.11
47716;BME280;33476;50.984;3.538;2023-05-12T06:46:37;101728.19;;;15.12;72.07
47716;BME280;33476;50.984;3.538;2023-05-12T06:49:03;101729.38;;;15.07;72.26
47716;BME280;33476;50.984;3.538;2023-05-12T06:51:28;101732.16;;;15.04;72.13
47716;BME280;33476;50.984;3.538;2023-05-12T06:53:54;101728.59;;;15.05;72.28
47716;BME280;33476;50.984;3.538;2023-05-12T06:56:19;101725.91;;;15.06;71.97
47716;BME280;33476;50.984;3.538;2023-05-12T06:58:45;101728.53;;;15.06;72.20
47716;BME280;33476;50.984;3.538;2023-05-12T07:01:12;101726.91;;;15.04;72.41
47716;BME280;33476;50.984;3.538;2023-05-12T07:03:37;101729.63;;;15.02;72.37
47716;BME280;33476;50.984;3.538;2023-05-12T07:06:03;101723.69;;;14.99;72.08
47716;BME280;33476;50.984;3.538;2023-05-12T07:08:28;101722.97;;;14.95;72.23
47716;BME280;33476;50.984;3.538;2023-05-12T07:10:53;101714.13;;;14.96;72.21
47716;BME280;33476;50.984;3.538;2023-05-12T07:13:19;101720.25;;;14.97;72.43
47716;BME280;33476;50.984;3.538;2023-05-12T07:15:44;101723.69;;;14.99;72.32
47716;BME280;33476;50.984;3.538;2023-05-12T07:18:10;101724.53;;;14.99;72.37
47716;BME280;33476;50.984;3.538;2023-05-12T07:20:35;101726.97;;;15.02;72.59
47716;BME280;33476;50.984;3.538;2023-05-12T07:23:00;101722.66;;;15.01;72.44
47716;BME280;33476;50.984;3.538;2023-05-12T07:25:26;101715.59;;;15.02;72.34
47716;BME280;33476;50.984;3.538;2023-05-12T07:27:52;101717.31;;;15.03;72.14
47716;BME280;33476;50.984;3.538;2023-05-12T07:30:18;101716.28;;;15.05;72.27
47716;BME280;33476;50.984;3.538;2023-05-12T07:32:44;101716.22;;;15.07;72.18
47716;BME280;33476;50.984;3.538;2023-05-12T07:35:09;101704.88;;;15.06;72.39
47716;BME280;33476;50.984;3.538;2023-05-12T07:37:35;101711.19;;;15.02;72.40
47716;BME280;33476;50.984;3.538;2023-05-12T07:40:00;101709.59;;;15.00;72.77
47716;BME280;33476;50.984;3.538;2023-05-12T07:42:26;101705.31;;;14.97;72.86
47716;BME280;33476;50.984;3.538;2023-05-12T07:44:51;101701.69;;;15.00;73.03
47716;BME280;33476;50.984;3.538;2023-05-12T07:47:17;101697.19;;;15.02;73.11
47716;BME280;33476;50.984;3.538;2023-05-12T07:49:42;101702.28;;;15.05;73.00
47716;BME280;33476;50.984;3.538;2023-05-12T07:52:07;101701.53;;;15.03;73.08
47716;BME280;33476;50.984;3.538;2023-05-12T07:54:33;101701.59;;;15.01;73.17
47716;BME280;33476;50.984;3.538;2023-05-12T07:56:58;101696.34;;;15.01;73.00
47716;BME280;33476;50.984;3.538;2023-05-12T07:59:23;101696.25;;;15.03;72.92
47716;BME280;33476;50.984;3.538;2023-05-12T08:01:49;101691.94;;;15.02;73.06
47716;BME280;33476;50.984;3.538;2023-05-12T08:04:14;101694.34;;;15.06;73.28
47716;BME280;33476;50.984;3.538;2023-05-12T08:06:40;101689.75;;;15.10;73.08
47716;BME280;33476;50.984;3.538;2023-05-12T08:09:05;101687.13;;;15.10;73.08
47716;BME280;33476;50.984;3.538;2023-05-12T08:11:30;101682.03;;;15.07;73.25
47716;BME280;33476;50.984;3.538;2023-05-12T08:13:56;101683.72;;;15.08;73.67
47716;BME280;33476;50.984;3.538;2023-05-12T08:16:22;101677.53;;;15.09;73.62
47716;BME280;33476;50.984;3.538;2023-05-12T08:18:47;101679.91;;;15.13;73.52
47716;BME280;33476;50.984;3.538;2023-05-12T08:21:12;101675.47;;;15.14;73.72
47716;BME280;33476;50.984;3.538;2023-05-12T08:23:38;101673.56;;;15.17;73.81
47716;BME280;33476;50.984;3.538;2023-05-12T08:26:03;101672.53;;;15.20;73.86
47716;BME280;33476;50.984;3.538;2023-05-12T08:28:29;101671.78;;;15.18;74.05
47716;BME280;33476;50.984;3.538;2023-05-12T08:30:55;101668.97;;;15.21;74.26
47716;BME280;33476;50.984;3.538;2023-05-12T08:33:21;101671.59;;;15.21;74.39
47716;BME280;33476;50.984;3.538;2023-05-12T08:35:46;101664.63;;;15.20;74.71
47716;BME280;33476;50.984;3.538;2023-05-12T08:38:12;101664.56;;;15.22;74.94
47716;BME280;33476;50.984;3.538;2023-05-12T08:40:46;101667.13;;;15.23;75.05
47716;BME280;33476;50.984;3.538;2023-05-12T08:43:25;101665.06;;;15.28;75.26
47716;BME280;33476;50.984;3.538;2023-05-12T08:45:55;101663.19;;;15.30;75.28
47716;BME280;33476;50.984;3.538;2023-05-12T08:48:24;101665.78;;;15.32;75.80
47716;BME280;33476;50.984;3.538;2023-05-12T08:50:52;101670.19;;;15.31;75.95
47716;BME280;33476;50.984;3.538;2023-05-12T08:53:20;101668.22;;;15.35;76.34
47716;BME280;33476;50.984;3.538;2023-05-12T08:55:47;101662.03;;;15.36;76.37
47716;BME280;33476;50.984;3.538;2023-05-12T08:58:14;101668.22;;;15.35;76.57
47716;BME280;33476;50.984;3.538;2023-05-12T09:00:40;101666.63;;;15.32;76.97
47716;BME280;33476;50.984;3.538;2023-05-12T09:03:06;101665.59;;;15.35;77.08
47716;BME280;33476;50.984;3.538;2023-05-12T09:05:32;101667.91;;;15.41;77.25
47716;BME280;33476;50.984;3.538;2023-05-12T09:07:59;101656.34;;;15.43;76.97
47716;BME280;33476;50.984;3.538;2023-05-12T09:10:26;101664.16;;;15.45;77.26
47716;BME280;33476;50.984;3.538;2023-05-12T09:12:54;101661.44;;;15.46;77.38
47716;BME280;33476;50.984;3.538;2023-05-12T09:15:33;101659.59;;;15.49;77.60
47716;BME280;33476;50.984;3.538;2023-05-12T09:17:58;101658.38;;;15.54;77.57
47716;BME280;33476;50.984;3.538;2023-05-12T09:20:26;101661.81;;;15.56;77.80
47716;BME280;33476;50.984;3.538;2023-05-12T09:22:52;101658.84;;;15.62;77.86
47716;BME280;33476;50.984;3.538;2023-05-12T09:25:19;101659.53;;;15.66;78.12
47716;BME280;33476;50.984;3.538;2023-05-12T09:27:46;101659.34;;;15.69;78.17
47716;BME280;33476;50.984;3.538;2023-05-12T09:30:12;101656.38;;;15.75;78.37
47716;BME280;33476;50.984;3.538;2023-05-12T09:32:38;101658.75;;;15.80;78.36
47716;BME280;33476;50.984;3.538;2023-05-12T09:35:08;101653.22;;;15.84;78.47
47716;BME280;33476;50.984;3.538;2023-05-12T09:37:37;101656.19;;;15.94;78.30
47716;BME280;33476;50.984;3.538;2023-05-12T09:40:05;101655.16;;;15.96;78.36
47716;BME280;33476;50.984;3.538;2023-05-12T09:42:32;101658.56;;;15.98;78.59
47716;BME280;33476;50.984;3.538;2023-05-12T09:45:04;101654.16;;;15.99;78.74
47716;BME280;33476;50.984;3.538;2023-05-12T09:47:38;101652.91;;;16.05;78.45
47716;BME280;33476;50.984;3.538;2023-05-12T09:50:05;101659.81;;;16.07;78.74
47716;BME280;33476;50.984;3.538;2023-05-12T09:52:35;101656.16;;;16.10;79.03
47716;BME280;33476;50.984;3.538;2023-05-12T09:55:08;101662.50;;;16.21;78.67
47716;BME280;33476;50.984;3.538;2023-05-12T09:57:43;101654.06;;;16.31;78.96
47716;BME280;33476;50.984;3.538;2023-05-12T10:00:10;101653.34;;;16.43;79.01
47716;BME280;33476;50.984;3.538;2023-05-12T10:02:41;101662.78;;;16.47;79.25
47716;BME280;33476;50.984;3.538;2023-05-12T10:05:13;101661.00;;;16.47;79.39
47716;BME280;33476;50.984;3.538;2023-05-12T10:07:41;101657.13;;;16.53;79.44
47716;BME280;33476;50.984;3.538;2023-05-12T10:10:10;101655.91;;;16.58;79.41
47716;BME280;33476;50.984;3.538;2023-05-12T10:12:35;101655.63;;;16.63;79.50
47716;BME280;33476;50.984;3.538;2023-05-12T10:15:02;101661.47;;;16.68;79.27
47716;BME280;33476;50.984;3.538;2023-05-12T10:17:27;101661.31;;;16.71;79.16
47716;BME280;33476;50.984;3.538;2023-05-12T10:19:54;101665.47;;;16.75;79.09
47716;BME280;33476;50.984;3.538;2023-05-12T10:22:20;101666.91;;;16.81;79.10
47716;BME280;33476;50.984;3.538;2023-05-12T10:24:47;101669.34;;;16.84;79.23
47716;BME280;33476;50.984;3.538;2023-05-12T10:27:14;101666.53;;;16.87;79.18
47716;BME280;33476;50.984;3.538;2023-05-12T10:29:40;101663.50;;;16.93;78.99
47716;BME280;33476;50.984;3.538;2023-05-12T10:32:06;101663.91;;;17.01;78.95
47716;BME280;33476;50.984;3.538;2023-05-12T10:34:33;101657.31;;;17.08;78.68
47716;BME280;33476;50.984;3.538;2023-05-12T10:36:59;101659.09;;;17.08;78.32
47716;BME280;33476;50.984;3.538;2023-05-12T10:39:28;101662.94;;;17.02;78.47
47716;BME280;33476;50.984;3.538;2023-05-12T10:42:07;101667.00;;;16.94;78.42
47716;BME280;33476;50.984;3.538;2023-05-12T10:44:33;101668.53;;;16.98;78.04
47716;BME280;33476;50.984;3.538;2023-05-12T10:46:59;101666.72;;;16.98;77.80
47716;BME280;33476;50.984;3.538;2023-05-12T10:49:38;101665.88;;;16.98;77.66
47716;BME280;33476;50.984;3.538;2023-05-12T10:52:04;101670.69;;;17.05;77.02
47716;BME280;33476;50.984;3.538;2023-05-12T10:54:38;101671.91;;;17.00;77.09
47716;BME280;33476;50.984;3.538;2023-05-12T10:57:13;101665.69;;;17.01;77.04
47716;BME280;33476;50.984;3.538;2023-05-12T10:59:50;101673.34;;;17.05;77.00
47716;BME280;33476;50.984;3.538;2023-05-12T11:02:18;101671.25;;;17.10;76.82
47716;BME280;33476;50.984;3.538;2023-05-12T11:04:59;101675.69;;;17.10;76.88
47716;BME280;33476;50.984;3.538;2023-05-12T11:07:27;101667.84;;;17.08;76.88
47716;BME280;33476;50.984;3.538;2023-05-12T11:09:55;101669.28;;;17.14;76.85
47716;BME280;33476;50.984;3.538;2023-05-12T11:12:21;101664.66;;;17.18;76.74
47716;BME280;33476;50.984;3.538;2023-05-12T11:14:47;101671.25;;;17.25;76.55
47716;BME280;33476;50.984;3.538;2023-05-12T11:17:13;101674.47;;;17.30;76.32
47716;BME280;33476;50.984;3.538;2023-05-12T11:19:44;101676.16;;;17.31;76.48
47716;BME280;33476;50.984;3.538;2023-05-12T11:22:10;101688.03;;;17.38;76.26
47716;BME280;33476;50.984;3.538;2023-05-12T11:24:37;101682.75;;;17.38;76.26
47716;BME280;33476;50.984;3.538;2023-05-12T11:27:04;101678.78;;;17.31;76.19
47716;BME280;33476;50.984;3.538;2023-05-12T11:29:30;101688.88;;;17.24;76.15
47716;BME280;33476;50.984;3.538;2023-05-12T11:31:56;101689.72;;;17.25;75.85
47716;BME280;33476;50.984;3.538;2023-05-12T11:34:24;101695.00;;;17.25;75.80
47716;BME280;33476;50.984;3.538;2023-05-12T11:36:51;101696.78;;;17.24;75.58
47716;BME280;33476;50.984;3.538;2023-05-12T11:41:46;101701.22;;;17.24;75.35
47716;BME280;33476;50.984;3.538;2023-05-12T11:44:19;101701.03;;;17.27;75.04
47716;BME280;33476;50.984;3.538;2023-05-12T11:47:02;101695.66;;;17.28;74.67
47716;BME280;33476;50.984;3.538;2023-05-12T11:49:29;101704.50;;;17.41;74.19
47716;BME280;33476;50.984;3.538;2023-05-12T11:51:58;101714.03;;;17.44;73.62
47716;BME280;33476;50.984;3.538;2023-05-12T11:54:24;101728.75;;;17.48;73.84
47716;BME280;33476;50.984;3.538;2023-05-12T11:56:53;101724.97;;;17.52;73.52
47716;BME280;33476;50.984;3.538;2023-05-12T11:59:29;101722.16;;;17.55;73.61
47716;BME280;33476;50.984;3.538;2023-05-12T12:01:55;101722.50;;;17.63;73.63
47716;BME280;33476;50.984;3.538;2023-05-12T12:04:37;101725.91;;;17.65;73.86
47716;BME280;33476;50.984;3.538;2023-05-12T12:07:05;101729.28;;;17.67;73.15
47716;BME280;33476;50.984;3.538;2023-05-12T12:09:31;101735.91;;;17.60;73.30
47716;BME280;33476;50.984;3.538;2023-05-12T12:11:58;101734.50;;;17.55;73.42
47716;BME280;33476;50.984;3.538;2023-05-12T12:14:24;101733.56;;;17.56;73.31
47716;BME280;33476;50.984;3.538;2023-05-12T12:16:49;101725.91;;;17.65;73.09
47716;BME280;33476;50.984;3.538;2023-05-12T12:19:14;101738.06;;;17.68;72.76
47716;BME280;33476;50.984;3.538;2023-05-12T12:21:40;101733.09;;;17.63;71.95
47716;BME280;33476;50.984;3.538;2023-05-12T12:24:06;101743.06;;;17.58;71.94
47716;BME280;33476;50.984;3.538;2023-05-12T12:26:32;101744.41;;;17.65;72.09
47716;BME280;33476;50.984;3.538;2023-05-12T12:28:57;101739.59;;;17.72;72.14
47716;BME280;33476;50.984;3.538;2023-05-12T12:31:23;101745.53;;;17.76;72.26
47716;BME280;33476;50.984;3.538;2023-05-12T12:33:48;101749.09;;;17.89;72.13
47716;BME280;33476;50.984;3.538;2023-05-12T12:36:13;101748.97;;;18.05;71.78
47716;BME280;33476;50.984;3.538;2023-05-12T12:38:39;101743.72;;;18.17;71.46
47716;BME280;33476;50.984;3.538;2023-05-12T12:41:05;101740.38;;;18.28;70.34
47716;BME280;33476;50.984;3.538;2023-05-12T12:43:31;101751.91;;;18.27;69.46
47716;BME280;33476;50.984;3.538;2023-05-12T12:45:57;101751.06;;;18.27;69.06
47716;BME280;33476;50.984;3.538;2023-05-12T12:48:22;101745.75;;;18.27;69.49